Guemes, Washington
Current Conditions -  °F | °C
As of 11:56 PM on Friday 19 Dec 2014 (Local Time) from KNUW Reporting Station
Overcast Overcast  
Wind Chill: 51°   Ceiling: 8000
Heat Index: 51°   Visibility: 10mi
Dew Point: 37°   Wind: 13mph
Humidity: 59%   Direction: 110°ESE
Pressure: 29.82"   Gusts: NA
Location:  48.4652°N, 122.617°W
Report Text: KNUW 200756Z 11011KT 10SM SCT031 BKN080 OVC100 11/03 A2982 RMK AO2 PK WND 13026/0718 SLP101 T01060028 401500089 VISNO E $
Loading
Personal Weather Stations






























Interactive Weather Map New forecast layout! Learn more

10-Day Weather Forecast

Advertisements
Track Severe Weather on mobile